Аэропорт: Павлодар. Павлодар

ICAO: UASP

METAR:
2019/01/21 23:00
UASP 212300Z 29006MPS 9999 OVC008CB M08/M09 Q1027 R21/////// NOSIG RMK QFE759/1012
METAR:
2018/05/04 03:06
TAF TAF UASP 040200Z 0403/041209 14012MPS 9999 BKN020CB OVC100 
      TEMPO 0403/0406 12017MPS 3100 -SHRA SCT010 OVC020CB 
      TEMPO 0406/0412 17020MPS 3100 -SHRA BKN006 OVC020CB